Latest Weather Observations for Mount William

IDV60801

Issued at 6:03 pm EST Friday 28 April 2017 (issued every 30 minutes, with the page automatically refreshed every 10 minutes)

About weather observations | Map of weather stations | Latest weather observations for VIC | Other Formats
Station Details ID: 079103 Name: MOUNT WILLIAM Lat: -37.30 Lon: 142.60 Height: 1150.0 m
Data from the previous 72 hours. | See also: Recent months at Mount William
Date/Time
EST
Temp
°C
App
Temp
°C
Dew
Point
°C
Rel
Hum
%
Delta-T
°C
Wind Press
QNH
hPa
Press
MSL
hPa
Rain since
9am
mm
Dir  Spd
km/h
Gust
km/h
Spd
kts
Gust
kts
28/06:00pm 8.4 5.5 8.3 99 0.1 WSW 13 28 7 15 - - 0.8
28/05:30pm 8.7 5.2 8.6 99 0.1 W 17 30 9 16 - - 0.8
28/05:00pm 9.0 5.9 9.0 100 0.0 WSW 15 28 8 15 - - 0.8
28/04:30pm 9.1 5.7 9.1 100 0.0 W 17 33 9 18 - - 0.6
28/04:00pm 9.0 5.9 9.0 100 0.0 W 15 30 8 16 - - 0.6
28/03:30pm 8.9 6.6 8.9 100 0.0 W 11 26 6 14 - - 0.4
28/03:00pm 9.0 6.7 9.0 100 0.0 WNW 11 20 6 11 - - 0.4
28/02:30pm 9.0 5.9 8.9 99 0.1 WSW 15 28 8 15 - - 0.4
28/02:00pm 8.8 4.7 8.7 99 0.1 WSW 20 35 11 19 - - 0.4
28/01:30pm 8.8 4.7 8.7 99 0.1 WSW 20 39 11 21 - - 0.4
28/01:00pm 8.7 4.6 8.6 99 0.1 W 20 37 11 20 - - 0.4
28/12:30pm 9.0 5.9 8.9 99 0.1 WSW 15 30 8 16 - - 0.4
28/12:00pm 8.6 5.0 8.5 99 0.1 WSW 17 35 9 19 - - 0.2
28/11:30am 8.4 4.8 8.3 99 0.1 WSW 17 33 9 18 - - 0.2
28/11:00am 8.2 4.2 8.1 99 0.1 WSW 19 32 10 17 - - 0.2
28/10:30am 8.1 4.0 8.0 99 0.1 WSW 19 39 10 21 - - 0.2
28/10:00am 7.8 3.1 7.7 99 0.1 WSW 22 39 12 21 - - 0.2
28/09:30am 7.6 1.3 7.5 99 0.1 WSW 30 44 16 24 - - 0.0
28/09:00am 7.6 1.7 7.5 99 0.1 WSW 28 44 15 24 - - 2.6
28/08:30am 7.4 0.5 7.3 99 0.0 WSW 33 48 18 26 - - 2.6
28/08:15am 7.4 1.1 7.3 99 0.0 WSW 30 50 16 27 - - 2.6
28/08:00am 7.3 0.0 7.2 99 0.0 WSW 35 46 19 25 - - 2.6
28/07:30am 7.0 -1.1 6.9 99 0.0 WSW 39 48 21 26 - - 2.6
28/07:00am 6.8 -1.8 6.7 99 0.0 WSW 41 50 22 27 - - 2.4
28/06:30am 6.8 -2.3 6.7 99 0.0 WSW 44 56 24 30 - - 2.4
28/06:00am 6.5 -2.7 6.4 99 0.0 WSW 44 57 24 31 - - 2.2
28/05:30am 5.9 -2.1 5.8 99 0.0 WSW 37 46 20 25 - - 2.2
28/05:00am 5.5 -2.2 5.4 99 0.0 WSW 35 52 19 28 - - 2.2
28/04:30am 5.3 -2.1 5.2 99 0.0 WSW 33 46 18 25 - - 2.2
28/04:00am 5.3 -2.8 5.2 99 0.0 WSW 37 52 20 28 - - 2.2
28/03:43am 5.3 -2.1 5.2 99 0.0 WSW 33 52 18 28 - - 2.2
28/03:30am 5.3 -0.3 5.2 99 0.0 WSW 24 37 13 20 - - 2.2
28/03:00am 5.3 -1.9 5.2 99 0.0 WSW 32 46 17 25 - - 2.2
28/02:30am 5.3 -0.3 5.2 99 0.0 WSW 24 41 13 22 - - 2.0
28/02:00am 5.5 -0.9 5.4 99 0.0 WSW 28 46 15 25 - - 2.0
28/01:59am 5.5 -0.9 5.4 99 0.0 WSW 28 46 15 25 - - 2.0
28/01:30am 5.6 0.0 5.5 99 0.0 WSW 24 46 13 25 - - 1.8
28/01:00am 5.3 0.4 5.2 99 0.0 WSW 20 37 11 20 - - 1.6
28/12:30am 5.2 0.9 5.1 99 0.0 W 17 28 9 15 - - 1.4
28/12:00am 5.0 -0.7 4.9 99 0.0 SW 24 33 13 18 - - 1.4
 
Date/Time
EST
Temp
°C
App
Temp
°C
Dew
Point
°C
Rel
Hum
%
Delta-T
°C
Wind Press
QNH
hPa
Press
MSL
hPa
Rain since
9am
mm
Dir  Spd
km/h
Gust
km/h
Spd
kts
Gust
kts
27/11:30pm 5.1 0.4 5.0 99 0.0 SW 19 30 10 16 - - 1.4
27/11:00pm 5.1 0.7 5.0 99 0.0 WSW 17 30 9 16 - - 1.4
27/10:30pm 5.2 0.3 5.1 99 0.0 WSW 20 33 11 18 - - 1.2
27/10:00pm 5.1 0.4 5.0 99 0.0 WSW 19 32 10 17 - - 1.0
27/09:30pm 5.0 0.1 4.9 99 0.0 WSW 20 32 11 17 - - 0.4
27/09:00pm 5.0 0.1 4.9 99 0.0 WSW 20 41 11 22 - - 0.2
27/08:30pm 4.8 -0.6 4.7 99 0.0 WSW 22 32 12 17 - - 0.2
27/08:00pm 4.7 -0.3 4.6 99 0.0 WSW 20 35 11 19 - - 0.2
27/07:30pm 4.6 -0.4 4.5 99 0.0 WSW 20 33 11 18 - - 0.2
27/07:00pm 4.3 -1.2 4.2 99 0.0 WSW 22 41 12 22 - - 0.2
27/06:30pm 4.5 -0.3 4.4 99 0.0 WSW 19 32 10 17 - - 0.2
27/06:00pm 4.5 -0.5 4.4 99 0.0 WSW 20 33 11 18 - - 0.2
27/05:30pm 4.5 -0.5 4.4 99 0.0 WSW 20 35 11 19 - - 0.2
27/05:00pm 4.4 -0.7 4.3 99 0.0 WSW 20 32 11 17 - - 0.2
27/04:30pm 4.4 -2.2 4.3 99 0.0 SW 28 39 15 21 - - 0.2
27/04:00pm 4.2 -0.7 4.1 99 0.0 WSW 19 30 10 16 - - 0.2
27/03:30pm 4.2 -1.3 4.1 99 0.0 WSW 22 41 12 22 - - 0.2
27/03:00pm 4.2 -1.7 4.1 99 0.0 WSW 24 39 13 21 - - 0.0
27/02:30pm 4.0 -1.9 3.9 99 0.0 WSW 24 41 13 22 - - 0.0
27/02:00pm 3.8 -2.5 3.7 99 0.0 WSW 26 41 14 22 - - 0.0
27/01:30pm 4.2 0.1 4.1 99 0.0 WSW 15 30 8 16 - - 0.0
27/01:00pm 3.5 -1.7 3.4 99 0.0 WSW 20 32 11 17 - - 0.0
27/12:30pm 3.3 -2.3 3.2 99 0.0 WSW 22 37 12 20 - - 0.0
27/12:00pm 3.5 -1.5 3.4 99 0.0 WSW 19 33 10 18 - - 0.0
27/11:30am 3.3 -1.4 3.2 99 0.0 WSW 17 35 9 19 - - 0.0
27/11:00am 3.0 -1.0 2.9 99 0.0 WSW 13 28 7 15 - - 0.0
27/10:30am 2.8 -1.6 2.7 99 0.0 SW 15 33 8 18 - - 0.0
27/10:00am 2.7 -3.0 2.6 99 0.0 SW 22 32 12 17 - - 0.0
27/09:30am 2.4 -3.8 2.3 99 0.0 SW 24 39 13 21 - - 0.0
27/09:00am 2.0 -4.6 1.9 99 0.0 SW 26 44 14 24 - - 4.6
27/08:42am 1.9 -5.9 1.8 99 0.0 SW 32 52 17 28 - - 4.4
27/08:30am 1.8 -4.9 1.7 99 0.0 SW 26 39 14 21 - - 4.4
27/08:09am 1.7 -5.4 1.6 99 0.0 SW 28 46 15 25 - - 4.4
27/08:00am 1.8 -4.9 1.7 99 0.0 SW 26 41 14 22 - - 4.4
27/07:30am 1.5 -6.3 1.4 99 0.0 SW 32 44 17 24 - - 4.4
27/07:13am 1.3 -6.6 1.2 99 0.0 SW 32 52 17 28 - - 4.4
27/07:00am 1.3 -6.8 1.2 99 0.0 SW 33 43 18 23 - - 4.4
27/06:30am 1.2 -7.3 1.1 99 0.0 SW 35 50 19 27 - - 4.4
27/06:00am 1.1 -7.0 1.0 99 0.0 SW 33 48 18 26 - - 4.4
27/05:30am 1.0 -7.9 0.9 99 0.0 SW 37 54 20 29 - - 4.4
27/05:01am 1.1 -8.5 1.0 99 0.0 SW 41 59 22 32 - - 4.4
27/05:00am 1.1 -8.5 1.0 99 0.0 SW 41 59 22 32 - - 4.4
27/04:31am 0.9 -7.2 0.8 99 0.0 SW 33 61 18 33 - - 4.4
27/04:30am 0.9 -7.2 0.8 99 0.0 SW 33 48 18 26 - - 4.4
27/04:06am 1.1 -7.4 1.0 99 0.0 SW 35 56 19 30 - - 4.4
27/04:00am 0.9 -7.6 0.8 99 0.0 SW 35 52 19 28 - - 4.4
27/03:30am 0.8 -8.1 0.7 99 0.0 SW 37 54 20 29 - - 4.4
27/03:02am 0.9 -7.6 0.8 99 0.0 SW 35 54 19 29 - - 4.4
27/03:00am 0.8 -8.1 0.7 99 0.0 SW 37 54 20 29 - - 4.4
27/02:37am 0.9 -8.0 0.8 99 0.0 SW 37 59 20 32 - - 4.4
27/02:30am 0.9 -8.0 0.8 99 0.0 SSW 37 52 20 28 - - 4.4
27/02:00am 0.7 -8.2 0.6 99 0.0 SW 37 56 20 30 - - 4.4
27/01:32am 0.9 -8.0 0.8 99 0.0 SW 37 56 20 30 - - 4.4
27/01:30am 1.0 -7.9 0.9 99 0.0 SW 37 56 20 30 - - 4.4
27/01:26am 1.1 -7.4 1.0 99 0.0 SW 35 56 19 30 - - 4.4
27/01:00am 1.0 -7.9 0.9 99 0.0 SSW 37 54 20 29 - - 4.4
27/12:30am 0.9 -8.8 0.8 99 0.0 SSW 41 69 22 37 - - 4.4
27/12:00am 0.8 -8.9 0.7 99 0.0 SSW 41 59 22 32 - - 4.4
 
Date/Time
EST
Temp
°C
App
Temp
°C
Dew
Point
°C
Rel
Hum
%
Delta-T
°C
Wind Press
QNH
hPa
Press
MSL
hPa
Rain since
9am
mm
Dir  Spd
km/h
Gust
km/h
Spd
kts
Gust
kts
26/11:36pm 0.8 -8.9 0.7 99 0.0 SSW 41 59 22 32 - - 4.4
26/11:30pm 0.8 -9.2 0.7 99 0.0 SSW 43 59 23 32 - - 4.4
26/11:00pm 0.9 -9.1 0.8 99 0.0 SW 43 65 23 35 - - 4.4
26/10:33pm 1.0 -8.3 0.9 99 0.0 SSW 39 59 21 32 - - 4.4
26/10:30pm 1.0 -8.6 0.9 99 0.0 SSW 41 59 22 32 - - 4.4
26/10:00pm 0.6 -9.1 0.5 99 0.0 SW 41 61 22 33 - - 4.4
26/09:30pm 0.8 -8.5 0.7 99 0.0 SW 39 57 21 31 - - 4.4
26/09:00pm 0.8 -9.8 0.7 99 0.0 SW 46 69 25 37 - - 4.4
26/08:30pm 0.5 -8.5 0.4 99 0.0 SW 37 57 20 31 - - 4.4
26/08:00pm 0.6 -9.5 0.5 99 0.0 SW 43 70 23 38 - - 4.2
26/07:37pm 0.3 -9.4 0.2 99 0.0 SW 41 61 22 33 - - 3.8
26/07:30pm 0.4 -9.7 0.3 99 0.0 SW 43 61 23 33 - - 3.6
26/07:05pm 0.4 -9.9 0.3 99 0.0 SW 44 65 24 35 - - 3.4
26/07:00pm 0.3 -10.8 0.2 99 0.0 SW 48 63 26 34 - - 3.4
26/06:30pm 0.9 -8.4 0.8 99 0.0 SW 39 57 21 31 - - 3.0
26/06:02pm 0.7 -8.6 0.6 99 0.0 SW 39 65 21 35 - - 3.0
26/06:00pm 0.7 -8.6 0.6 99 0.0 SW 39 57 21 31 - - 3.0
26/05:35pm 0.8 -10.6 0.7 99 0.0 SW 50 69 27 37 - - 3.0
26/05:30pm 0.7 -10.3 0.6 99 0.0 SW 48 69 26 37 - - 3.0
26/05:29pm 0.7 -10.3 0.6 99 0.0 SW 48 69 26 37 - - 3.0
26/05:00pm 1.1 -7.0 1.0 99 0.0 SW 33 57 18 31 - - 2.8
26/04:32pm 1.0 -9.0 0.9 99 0.0 SW 43 61 23 33 - - 2.8
26/04:30pm 1.0 -9.2 0.9 99 0.0 SW 44 61 24 33 - - 2.8
26/04:00pm 0.9 -9.1 0.8 99 0.0 SW 43 63 23 34 - - 2.8
26/03:38pm 0.8 -7.7 0.7 99 0.0 SW 35 61 19 33 - - 2.8
26/03:30pm 0.8 -7.7 0.7 99 0.0 SW 35 52 19 28 - - 2.4
26/03:00pm 2.1 -6.4 0.9 92 0.5 SW 35 67 19 36 - - 2.4
26/02:30pm 1.9 -6.6 1.2 95 0.3 SW 35 56 19 30 - - 2.2
26/02:00pm 1.2 -8.1 0.6 96 0.2 SW 39 59 21 32 - - 2.2
26/01:30pm 1.9 -7.4 0.4 90 0.6 SW 39 69 21 37 - - 2.0
26/01:00pm 1.8 -7.5 0.6 92 0.5 SSW 39 63 21 34 - - 1.8
26/12:31pm 1.5 -7.0 1.1 97 0.2 SSW 35 54 19 29 - - 1.8
26/12:30pm 1.6 -7.2 1.2 97 0.2 SSW 37 54 20 29 - - 1.8
26/12:00pm 0.7 -11.1 0.3 97 0.2 SW 52 83 28 45 - - 1.8
26/11:30am 1.3 -8.3 1.2 99 0.0 SSW 41 67 22 36 - - 1.2
26/11:07am -0.1 -9.9 -0.2 99 0.0 SW 41 78 22 42 - - 0.8
26/11:00am 1.1 -7.8 1.0 99 0.0 SW 37 57 20 31 - - 0.8
26/10:30am 1.3 -7.2 1.2 99 0.0 SW 35 57 19 31 - - 0.8
26/10:00am 0.9 -9.1 0.8 99 0.0 SSW 43 74 23 40 - - 0.8
26/09:30am 1.1 -7.8 1.0 99 0.0 SW 37 63 20 34 - - 0.0
26/09:00am 1.7 -7.8 1.6 99 0.0 SSW 41 63 22 34 - - 18.6
26/08:30am 1.2 -10.1 1.1 99 0.0 SSW 50 80 27 43 - - 18.6
26/08:00am 1.2 -10.5 1.1 99 0.0 SW 52 76 28 41 - - 18.6
26/07:30am 1.0 -10.0 0.9 99 0.0 SW 48 72 26 39 - - 18.4
26/07:00am 1.0 -11.1 0.9 99 0.0 SSW 54 91 29 49 - - 18.4
26/06:30am 0.8 -10.2 0.7 99 0.0 SW 48 74 26 40 - - 18.4
26/06:00am 0.7 -11.1 0.6 99 0.0 SW 52 78 28 42 - - 18.0
26/05:30am 0.3 -11.2 0.2 99 0.0 SW 50 72 27 39 - - 17.6
26/05:00am 0.8 -10.6 0.7 99 0.0 SW 50 74 27 40 - - 17.2
26/04:30am 0.6 -9.7 0.5 99 0.0 SW 44 74 24 40 - - 16.8
26/04:29am 0.7 -9.4 0.6 99 0.0 SW 43 74 23 40 - - 16.8
26/04:02am 1.5 -6.9 1.4 99 0.0 SW 35 56 19 30 - - 15.0
26/04:00am 1.4 -7.0 1.3 99 0.0 SW 35 54 19 29 - - 14.8
26/03:55am 1.6 -6.2 1.5 99 0.0 SW 32 50 17 27 - - 14.2
26/03:30am 2.4 -4.9 2.3 99 0.0 WSW 30 44 16 24 - - 12.4
26/03:00am 2.3 -6.0 2.2 99 0.0 WSW 35 54 19 29 - - 12.4
26/02:30am 2.3 -6.0 2.2 99 0.0 WSW 35 57 19 31 - - 12.4
26/02:00am 2.3 -6.0 2.2 99 0.0 WSW 35 56 19 30 - - 12.2
26/01:32am 2.8 -6.2 2.7 99 0.0 WSW 39 57 21 31 - - 11.6
26/01:30am 2.9 -6.4 2.8 99 0.0 WSW 41 57 22 31 - - 11.4
26/01:00am 3.8 -3.7 3.7 99 0.0 WSW 32 54 17 29 - - 7.8
26/12:35am 5.0 -1.5 4.9 99 0.0 WSW 28 50 15 27 - - 4.2
26/12:30am 5.5 0.3 5.4 99 0.0 W 22 37 12 20 - - 3.8
26/12:00am 5.5 -1.2 5.4 99 0.0 W 30 50 16 27 - - 3.6
 
Date/Time
EST
Temp
°C
App
Temp
°C
Dew
Point
°C
Rel
Hum
%
Delta-T
°C
Wind Press
QNH
hPa
Press
MSL
hPa
Rain since
9am
mm
Dir  Spd
km/h
Gust
km/h
Spd
kts
Gust
kts
25/11:32pm 5.6 -0.7 5.5 99 0.0 W 28 56 15 30 - - 3.4
25/11:30pm 5.6 -0.4 5.5 99 0.0 W 26 46 14 25 - - 3.4
25/11:00pm 5.5 -2.2 5.4 99 0.0 W 35 59 19 32 - - 3.4
25/10:34pm 5.4 -2.3 5.3 99 0.0 W 35 56 19 30 - - 3.4
25/10:30pm 5.4 -2.7 5.3 99 0.0 W 37 54 20 29 - - 3.4
25/10:00pm 5.9 -2.1 5.8 99 0.0 W 37 63 20 34 - - 3.4
25/09:30pm 6.3 -0.7 6.2 99 0.0 W 32 52 17 28 - - 3.4
25/09:04pm 6.7 0.2 6.6 99 0.0 W 30 48 16 26 - - 3.4
25/09:00pm 6.7 0.2 6.6 99 0.0 W 30 46 16 25 - - 3.2
25/08:45pm 6.6 0.5 6.5 99 0.0 W 28 57 15 31 - - 2.6
25/08:30pm 6.5 1.1 6.4 99 0.0 W 24 43 13 23 - - 2.6
25/08:00pm 6.5 1.1 6.4 99 0.0 W 24 41 13 22 - - 2.4
25/07:30pm 6.4 -0.1 6.3 99 0.0 WSW 30 56 16 30 - - 2.4
25/07:00pm 6.0 -1.2 5.9 99 0.0 WSW 33 61 18 33 - - 2.4
25/06:30pm 6.8 0.7 6.7 99 0.0 W 28 52 15 28 - - 2.4

Other Formats:

Comma delimited format used in spreadsheet applications
http://www.bom.gov.au/fwo/IDV60801/IDV60801.94833.axf

JavaScript Object Notation format (JSON) in row-major order
http://www.bom.gov.au/fwo/IDV60801/IDV60801.94833.json